Time;durP1;ratioP1;P1;durP2;ratioP2;P2;SDS_P1;SDS_P2;PMS_P1;PMS_P2;Temp;Humidity;BMP_temperature;BMP_pressure;BME280_temperature;BME280_humidity;BME280_pressure;Samples;Min_cycle;Max_cycle;Signal;HPM_P1;HPM_P2
2020/12/22 00:02:29;;;;;;;0.57;0.52;;;;;;;10.20;67.33;100421.41;7945186;28;20111;-64
2020/12/22 00:06:23;;;;;;;0.82;0.60;;;;;;;10.24;67.21;100396.59;7945290;28;20041;-62
2020/12/22 00:10:14;;;;;;;0.60;0.60;;;;;;;10.28;67.51;100399.88;7960098;28;20038;-63
2020/12/22 00:14:04;;;;;;;0.30;0.30;;;;;;;10.32;67.40;100390.81;7944530;28;20037;-62
2020/12/22 00:17:55;;;;;;;0.40;0.40;;;;;;;10.34;67.42;100392.38;7944573;28;20034;-64
2020/12/22 00:21:46;;;;;;;0.43;0.43;;;;;;;10.39;67.43;100390.28;7960139;28;20068;-64
2020/12/22 00:25:44;;;;;;;0.50;0.50;;;;;;;10.43;67.33;100398.75;7945021;28;20034;-61
2020/12/22 00:29:35;;;;;;;;;;;;;;;10.37;67.61;100384.28;7945043;28;20419;-62
2020/12/22 00:33:25;;;;;;;0.43;0.43;;;;;;;10.43;67.53;100375.13;7944907;28;19918;-64
2020/12/22 00:37:16;;;;;;;0.40;0.40;;;;;;;10.49;67.49;100372.03;7944163;28;20037;-63
2020/12/22 00:41:11;;;;;;;0.50;0.50;;;;;;;10.53;67.29;100392.75;7943656;28;20095;-64
2020/12/22 00:45:01;;;;;;;0.50;0.50;;;;;;;10.57;67.46;100393.38;7943490;28;20409;-63
2020/12/22 00:48:52;;;;;;;0.50;0.50;;;;;;;10.59;67.44;100402.81;7943760;28;20050;-63
2020/12/22 00:52:46;;;;;;;0.50;0.50;;;;;;;10.66;67.28;100403.19;7944400;28;20034;-63
2020/12/22 00:56:41;;;;;;;0.50;0.40;;;;;;;10.72;67.49;100426.38;7939895;28;20038;-63
2020/12/22 01:00:38;;;;;;;0.52;0.52;;;;;;;10.76;67.45;100419.13;7942553;28;20407;-63
2020/12/22 01:04:29;;;;;;;0.40;0.40;;;;;;;10.78;67.22;100410.16;7943986;28;20041;-63
2020/12/22 01:08:19;;;;;;;0.50;0.50;;;;;;;10.81;67.23;100407.31;7944344;28;20042;-63
2020/12/22 01:12:10;;;;;;;0.50;0.50;;;;;;;10.86;67.23;100394.66;7944355;28;20265;-63
2020/12/22 01:16:00;;;;;;;0.52;0.52;;;;;;;10.89;67.33;100399.72;7943522;28;20045;-62
2020/12/22 01:19:53;;;;;;;2.78;0.85;;;;;;;10.91;67.20;100400.41;7958828;28;20033;-63
2020/12/22 01:23:43;;;;;;;0.52;0.52;;;;;;;10.95;67.28;100406.28;7943902;28;20076;-61
2020/12/22 01:27:34;;;;;;;0.47;0.47;;;;;;;10.96;67.23;100398.28;7948503;28;20041;-62
2020/12/22 01:31:27;;;;;;;0.60;0.60;;;;;;;11.00;67.27;100380.50;7949649;28;20049;-63
2020/12/22 01:35:17;;;;;;;0.40;0.40;;;;;;;11.03;67.25;100398.66;7950026;28;20572;-63
2020/12/22 01:39:08;;;;;;;1.15;0.50;;;;;;;11.05;67.28;100387.09;7964436;28;20041;-63
2020/12/22 01:42:58;;;;;;;1.27;0.70;;;;;;;11.06;67.26;100374.78;7949072;28;20038;-63
2020/12/22 01:46:50;;;;;;;0.60;0.60;;;;;;;11.07;67.22;100379.91;7963873;28;20042;-63
2020/12/22 01:50:41;;;;;;;0.50;0.50;;;;;;;11.08;67.25;100384.22;7949284;28;20593;-63
2020/12/22 01:54:32;;;;;;;1.38;0.82;;;;;;;11.09;67.26;100396.41;7949588;28;20494;-63
2020/12/22 01:58:22;;;;;;;0.70;0.60;;;;;;;11.09;67.05;100393.78;7949042;28;20036;-63
2020/12/22 02:02:13;;;;;;;0.60;0.60;;;;;;;11.11;67.07;100398.91;7948261;28;20038;-62
2020/12/22 02:06:04;;;;;;;0.60;0.57;;;;;;;11.13;67.12;100397.03;7948888;28;20033;-63
2020/12/22 02:09:54;;;;;;;0.80;0.50;;;;;;;11.13;67.19;100411.00;7946790;28;20056;-62
2020/12/22 02:13:45;;;;;;;0.45;0.45;;;;;;;11.13;67.13;100395.22;7948605;28;20037;-62
2020/12/22 02:17:36;;;;;;;2.70;1.15;;;;;;;11.13;67.19;100413.63;7947962;28;20053;-63
2020/12/22 02:21:26;;;;;;;0.63;0.63;;;;;;;11.16;67.22;100395.00;7963290;28;20483;-62
2020/12/22 02:25:17;;;;;;;0.75;0.65;;;;;;;11.17;67.21;100398.47;7948740;28;20505;-63
2020/12/22 02:29:08;;;;;;;1.67;0.73;;;;;;;11.18;67.54;100405.41;7947805;28;20180;-63
2020/12/22 02:32:58;;;;;;;1.08;0.70;;;;;;;11.22;67.25;100408.63;7947671;28;20045;-63
2020/12/22 02:36:49;;;;;;;2.13;0.73;;;;;;;11.23;67.14;100397.16;7947759;28;20026;-63
2020/12/22 02:40:39;;;;;;;0.40;0.40;;;;;;;11.22;67.35;100380.56;7947933;28;20187;-62
2020/12/22 02:44:30;;;;;;;0.50;0.50;;;;;;;11.23;67.37;100394.53;7946440;28;20509;-62
2020/12/22 02:48:21;;;;;;;2.72;0.85;;;;;;;11.23;67.26;100391.91;7946894;28;20053;-63
2020/12/22 02:52:11;;;;;;;0.80;0.63;;;;;;;11.23;67.23;100399.78;7944307;28;20030;-63
2020/12/22 02:56:02;;;;;;;3.30;0.77;;;;;;;11.21;67.29;100394.66;7947899;28;20042;-62
2020/12/22 02:59:53;;;;;;;0.68;0.68;;;;;;;11.24;67.20;100410.19;7947355;28;20033;-63
2020/12/22 03:03:45;;;;;;;0.50;0.50;;;;;;;11.27;67.28;100407.34;7961627;28;20037;-63
2020/12/22 03:07:35;;;;;;;0.93;0.85;;;;;;;11.28;67.10;100387.94;7944284;28;20042;-63
2020/12/22 03:11:26;;;;;;;1.00;0.63;;;;;;;11.29;67.18;100394.06;7945290;28;20124;-62
2020/12/22 03:15:17;;;;;;;1.27;0.63;;;;;;;11.32;67.25;100414.84;7944691;28;20037;-63
2020/12/22 03:19:07;;;;;;;0.50;0.50;;;;;;;11.35;67.14;100393.59;7946081;28;20099;-63
2020/12/22 03:22:58;;;;;;;0.50;0.50;;;;;;;11.36;67.31;100393.47;7945320;28;20091;-63
2020/12/22 03:26:48;;;;;;;0.77;0.60;;;;;;;11.39;67.23;100395.88;7945295;28;20038;-63
2020/12/22 03:30:39;;;;;;;0.60;0.60;;;;;;;11.43;67.19;100401.72;7945265;28;20046;-63
2020/12/22 03:34:30;;;;;;;3.78;0.90;;;;;;;11.49;67.15;100406.50;7946706;28;20258;-63
2020/12/22 03:38:21;;;;;;;0.60;0.60;;;;;;;11.51;67.13;100413.34;7946307;28;20073;-63
2020/12/22 03:42:12;;;;;;;0.85;0.70;;;;;;;11.55;67.10;100411.31;7946262;28;20042;-63
2020/12/22 03:46:06;;;;;;;0.50;0.50;;;;;;;11.56;67.05;100411.16;7945484;28;20049;-64
2020/12/22 03:49:56;;;;;;;0.50;0.50;;;;;;;11.57;67.04;100410.25;7959864;28;20128;-63
2020/12/22 03:53:47;;;;;;;0.57;0.50;;;;;;;11.59;67.03;100413.63;7944562;28;20033;-63
2020/12/22 03:57:37;;;;;;;0.50;0.50;;;;;;;11.61;67.00;100418.75;7945589;28;20038;-64
2020/12/22 04:01:28;;;;;;;3.10;0.50;;;;;;;11.62;67.00;100430.94;7943666;28;20045;-64
2020/12/22 04:05:19;;;;;;;0.82;0.50;;;;;;;11.61;66.92;100421.38;7945597;28;20034;-63
2020/12/22 04:09:09;;;;;;;0.40;0.40;;;;;;;11.63;67.09;100430.00;7944188;28;20045;-63
2020/12/22 04:13:00;;;;;;;1.92;0.68;;;;;;;11.63;66.93;100430.00;7945409;28;20049;-62
2020/12/22 04:16:50;;;;;;;0.43;0.43;;;;;;;11.62;67.03;100433.59;7943642;28;20129;-62
2020/12/22 04:20:41;;;;;;;0.52;0.45;;;;;;;11.60;66.75;100433.69;7944902;28;20041;-63
2020/12/22 04:24:32;;;;;;;0.90;0.50;;;;;;;11.61;67.04;100429.25;7945089;28;20026;-63
2020/12/22 04:28:22;;;;;;;0.55;0.50;;;;;;;11.57;67.03;100430.47;7944668;28;20046;-62
2020/12/22 04:32:13;;;;;;;0.50;0.50;;;;;;;11.54;66.94;100428.88;7943783;28;20033;-63
2020/12/22 04:36:04;;;;;;;0.38;0.38;;;;;;;11.49;67.01;100441.53;7959998;28;20574;-63
2020/12/22 04:39:55;;;;;;;1.23;0.57;;;;;;;11.46;67.10;100448.84;7944213;28;20036;-63
2020/12/22 04:43:47;;;;;;;2.15;0.60;;;;;;;11.44;66.97;100448.94;7944329;28;20042;-64
2020/12/22 04:47:42;;;;;;;0.40;0.40;;;;;;;11.43;66.94;100457.81;7940236;28;20077;-62
2020/12/22 04:51:33;;;;;;;0.40;0.40;;;;;;;11.45;67.02;100466.41;7959424;28;20137;-64
2020/12/22 04:55:24;;;;;;;2.35;0.40;;;;;;;11.44;67.14;100458.66;7943836;28;20029;-62
2020/12/22 04:59:15;;;;;;;0.45;0.45;;;;;;;11.49;67.17;100474.91;7943521;28;20414;-64
2020/12/22 05:03:05;;;;;;;1.05;0.60;;;;;;;11.52;67.02;100477.31;7943675;28;20081;-63
2020/12/22 05:06:56;;;;;;;0.40;0.40;;;;;;;11.54;67.19;100470.97;7942480;28;20437;-61
2020/12/22 05:10:49;;;;;;;0.57;0.57;;;;;;;11.56;67.13;100482.19;7944056;28;20215;-62
2020/12/22 05:14:41;;;;;;;0.40;0.40;;;;;;;11.60;67.08;100482.88;7913454;28;20042;-62
2020/12/22 05:18:32;;;;;;;0.30;0.30;;;;;;;11.62;67.20;100491.47;7918367;28;20037;-63
2020/12/22 05:22:23;;;;;;;0.82;0.45;;;;;;;11.64;67.20;100478.19;7943944;28;20163;-64
2020/12/22 05:26:13;;;;;;;0.40;0.40;;;;;;;11.65;67.03;100485.94;7944338;28;20736;-64
2020/12/22 05:30:05;;;;;;;0.40;0.40;;;;;;;11.69;67.26;100486.59;7943563;28;20104;-63
2020/12/22 05:33:55;;;;;;;0.30;0.30;;;;;;;11.70;67.01;100483.81;7944039;28;20030;-64
2020/12/22 05:37:47;;;;;;;0.50;0.50;;;;;;;11.71;67.12;100488.13;7943260;28;20678;-63
2020/12/22 05:41:38;;;;;;;0.40;0.40;;;;;;;11.73;67.13;100494.09;7943701;28;20064;-62
2020/12/22 05:45:33;;;;;;;0.40;0.40;;;;;;;11.74;67.20;100503.69;7941424;28;20045;-62
2020/12/22 05:49:23;;;;;;;0.35;0.35;;;;;;;11.73;67.00;100509.06;7958710;28;20026;-61
2020/12/22 05:53:14;;;;;;;0.50;0.50;;;;;;;11.73;66.91;100507.25;7943467;28;20041;-63
2020/12/22 05:57:06;;;;;;;0.40;0.40;;;;;;;11.73;67.03;100506.44;7934262;28;20031;-64
2020/12/22 06:01:00;;;;;;;0.50;0.50;;;;;;;11.74;67.21;100519.47;7911788;28;20505;-63
2020/12/22 06:04:53;;;;;;;2.63;0.60;;;;;;;11.75;67.17;100517.69;7928311;28;20757;-63
2020/12/22 06:08:43;;;;;;;0.40;0.40;;;;;;;11.75;67.16;100520.31;7943133;28;20042;-62
2020/12/22 06:12:38;;;;;;;0.43;0.43;;;;;;;11.74;67.29;100534.41;7945888;28;20782;-63
2020/12/22 06:16:28;;;;;;;0.98;0.60;;;;;;;11.74;67.08;100530.00;7947979;28;20040;-62
2020/12/22 06:20:24;;;;;;;0.52;0.52;;;;;;;11.74;67.09;100539.69;7948591;28;20051;-63
2020/12/22 06:24:15;;;;;;;0.73;0.50;;;;;;;11.71;67.16;100535.50;7948453;28;20121;-63
2020/12/22 06:28:24;;;;;;;1.30;0.60;;;;;;;11.69;67.11;100553.19;7948390;28;20042;-63
2020/12/22 06:32:17;;;;;;;0.40;0.40;;;;;;;11.69;67.07;100555.81;7947627;28;20495;-63
2020/12/22 06:36:17;;;;;;;0.52;0.52;;;;;;;11.68;66.84;100556.78;7948525;28;20052;-63
2020/12/22 06:40:08;;;;;;;0.50;0.50;;;;;;;11.70;67.00;100561.91;7947663;28;20038;-62
2020/12/22 06:44:15;;;;;;;0.57;0.55;;;;;;;11.71;67.00;100574.13;7948000;28;20049;-63
2020/12/22 06:48:23;;;;;;;0.85;0.85;;;;;;;11.70;66.97;100562.75;7943896;28;21066;-63
2020/12/22 06:52:32;;;;;;;0.95;0.70;;;;;;;11.70;67.13;100572.44;7947943;28;20033;-63
2020/12/22 06:56:38;;;;;;;0.50;0.50;;;;;;;11.67;66.95;100570.88;7947161;28;20045;-62
2020/12/22 07:00:31;;;;;;;0.50;0.50;;;;;;;11.67;67.00;100580.56;7946497;28;20034;-62
2020/12/22 07:04:23;;;;;;;0.80;0.77;;;;;;;11.67;66.92;100589.31;7947600;28;20045;-63
2020/12/22 07:08:16;;;;;;;0.55;0.55;;;;;;;11.69;67.07;100592.66;7946996;28;20041;-63
2020/12/22 07:12:07;;;;;;;1.85;0.60;;;;;;;11.70;67.18;100601.38;7946606;28;20038;-63
2020/12/22 07:15:58;;;;;;;0.80;0.70;;;;;;;11.69;67.19;100600.53;7946613;28;20099;-63
2020/12/22 07:19:53;;;;;;;1.10;0.70;;;;;;;11.70;67.16;100604.84;7945189;28;20038;-63
2020/12/22 07:23:45;;;;;;;1.02;0.80;;;;;;;11.75;66.95;100610.63;7946500;28;20044;-63
2020/12/22 07:27:35;;;;;;;0.75;0.73;;;;;;;11.73;66.87;100609.88;7946702;28;20081;-63
2020/12/22 07:31:26;;;;;;;0.98;0.85;;;;;;;11.77;66.95;100621.03;7945859;28;20046;-63
2020/12/22 07:35:18;;;;;;;2.22;0.70;;;;;;;11.78;66.85;100623.53;7945245;28;20041;-62
2020/12/22 07:39:21;;;;;;;0.80;0.60;;;;;;;11.81;66.78;100620.66;7945901;28;20026;-63
2020/12/22 07:43:13;;;;;;;0.68;0.68;;;;;;;11.81;66.78;100622.50;7944922;28;20096;-63
2020/12/22 07:47:04;;;;;;;2.10;0.90;;;;;;;11.81;66.68;100625.94;7944364;28;20120;-63
2020/12/22 07:50:54;;;;;;;0.95;0.70;;;;;;;11.83;66.83;100636.34;7945113;28;20572;-64
2020/12/22 07:54:57;;;;;;;1.33;0.70;;;;;;;11.82;66.70;100646.03;7946082;28;20030;-64
2020/12/22 07:58:51;;;;;;;0.93;0.80;;;;;;;11.80;66.78;100652.38;7944443;28;20126;-62
2020/12/22 08:02:42;;;;;;;2.03;1.27;;;;;;;11.76;66.44;100664.94;7945115;28;20478;-63
2020/12/22 08:06:33;;;;;;;3.25;0.90;;;;;;;11.75;66.79;100660.63;7945334;28;20040;-62
2020/12/22 08:10:24;;;;;;;1.00;0.90;;;;;;;11.77;66.71;100663.97;7945306;28;20060;-62
2020/12/22 08:14:15;;;;;;;0.88;0.70;;;;;;;11.80;66.74;100673.44;7946138;28;20124;-62
2020/12/22 08:18:08;;;;;;;0.73;0.73;;;;;;;11.80;66.65;100669.03;7944439;28;20277;-62
2020/12/22 08:22:01;;;;;;;0.80;0.80;;;;;;;11.81;66.62;100685.66;7944152;28;20522;-62
2020/12/22 08:25:52;;;;;;;1.63;0.77;;;;;;;11.79;66.56;100690.19;7944006;28;20033;-62
2020/12/22 08:29:43;;;;;;;0.57;0.57;;;;;;;11.80;66.45;100695.34;7944499;28;20131;-62
2020/12/22 08:33:35;;;;;;;0.88;0.80;;;;;;;11.81;66.58;100707.53;7944020;28;20722;-62
2020/12/22 08:37:26;;;;;;;0.90;0.70;;;;;;;11.82;66.41;100711.84;7944418;28;20030;-63
2020/12/22 08:41:20;;;;;;;1.17;1.00;;;;;;;11.87;66.52;100707.09;7944766;28;20495;-63
2020/12/22 08:45:11;;;;;;;0.75;0.75;;;;;;;11.90;66.46;100721.78;7941780;28;20129;-62
2020/12/22 08:49:06;;;;;;;0.82;0.70;;;;;;;11.92;66.70;100731.28;7918102;28;20067;-63
2020/12/22 08:52:57;;;;;;;0.90;0.75;;;;;;;11.96;66.59;100730.09;7921200;28;20164;-62
2020/12/22 08:56:48;;;;;;;1.00;0.90;;;;;;;12.00;66.51;100736.81;7929112;28;20049;-63
2020/12/22 09:00:38;;;;;;;1.00;0.77;;;;;;;12.02;66.50;100742.78;7930271;28;20148;-63
2020/12/22 09:04:30;;;;;;;1.60;0.80;;;;;;;12.04;66.43;100751.44;7931194;28;20040;-63
2020/12/22 09:08:21;;;;;;;0.85;0.73;;;;;;;12.11;66.35;100767.59;7929316;28;20049;-63
2020/12/22 09:12:12;;;;;;;1.90;0.63;;;;;;;12.15;66.55;100766.41;7931958;28;20173;-64
2020/12/22 09:16:02;;;;;;;1.17;0.70;;;;;;;12.21;66.45;100763.34;7929530;28;20168;-64
2020/12/22 09:19:53;;;;;;;2.35;0.70;;;;;;;12.25;66.22;100775.34;7928467;28;20451;-64
2020/12/22 09:23:44;;;;;;;1.08;0.80;;;;;;;12.29;66.32;100775.94;7929679;28;20095;-64
2020/12/22 09:27:40;;;;;;;1.42;0.73;;;;;;;12.31;66.10;100784.59;7929904;28;20124;-64
2020/12/22 09:31:30;;;;;;;1.48;0.60;;;;;;;12.34;65.89;100784.34;7911747;28;20462;-63
2020/12/22 09:35:21;;;;;;;1.25;0.88;;;;;;;12.34;65.85;100792.25;7931574;28;20025;-63
2020/12/22 09:39:12;;;;;;;0.63;0.60;;;;;;;12.40;65.85;100808.41;7929791;28;20477;-63
2020/12/22 09:43:02;;;;;;;0.82;0.70;;;;;;;12.40;65.61;100812.84;7928998;28;20049;-63
2020/12/22 09:46:54;;;;;;;0.63;0.60;;;;;;;12.39;65.81;100817.28;7926011;28;20045;-63
2020/12/22 09:50:45;;;;;;;0.45;0.45;;;;;;;12.39;65.69;100822.53;7932478;28;20042;-63
2020/12/22 09:54:35;;;;;;;1.20;0.85;;;;;;;12.38;65.37;100820.03;7932180;28;20104;-63
2020/12/22 09:58:26;;;;;;;2.67;0.65;;;;;;;12.31;65.41;100824.91;7932259;28;20038;-63
2020/12/22 10:02:17;;;;;;;2.20;0.55;;;;;;;12.28;65.20;100834.84;7917269;28;20038;-63
2020/12/22 10:06:07;;;;;;;0.60;0.60;;;;;;;12.25;65.51;100842.97;7928822;28;20119;-63
2020/12/22 10:09:58;;;;;;;0.90;0.80;;;;;;;12.26;65.78;100847.28;7934990;28;20042;-63
2020/12/22 10:13:50;;;;;;;0.70;0.68;;;;;;;12.27;65.51;100849.78;7935933;28;20041;-62
2020/12/22 10:17:40;;;;;;;1.60;0.63;;;;;;;12.32;65.52;100846.81;7930134;28;20037;-62
2020/12/22 10:21:31;;;;;;;0.80;0.70;;;;;;;12.35;65.59;100842.16;7936585;28;20049;-62
2020/12/22 10:25:22;;;;;;;0.88;0.88;;;;;;;12.37;65.53;100844.69;7935496;28;20044;-64
2020/12/22 10:29:12;;;;;;;0.65;0.65;;;;;;;12.35;65.79;100844.78;7933583;28;20853;-63
2020/12/22 10:33:03;;;;;;;1.05;0.80;;;;;;;12.40;65.62;100855.84;7934249;28;20046;-63
2020/12/22 10:36:54;;;;;;;0.88;0.70;;;;;;;12.48;65.55;100852.63;7934957;28;20092;-64
2020/12/22 10:40:44;;;;;;;0.90;0.60;;;;;;;12.57;65.44;100851.97;7935274;28;20038;-64
2020/12/22 10:44:35;;;;;;;0.88;0.88;;;;;;;12.57;65.58;100856.38;7935235;28;21626;-63
2020/12/22 10:48:26;;;;;;;0.60;0.60;;;;;;;12.62;65.43;100855.13;7931431;28;20454;-63
2020/12/22 10:52:16;;;;;;;1.35;0.50;;;;;;;12.68;65.21;100864.38;7932289;28;20034;-63
2020/12/22 10:56:14;;;;;;;0.73;0.60;;;;;;;12.74;65.23;100888.47;7928885;28;20049;-63
2020/12/22 11:00:06;;;;;;;2.28;0.50;;;;;;;12.76;65.15;100881.31;7932285;28;20099;-63
2020/12/22 11:03:56;;;;;;;0.60;0.60;;;;;;;12.82;65.09;100885.25;7933092;28;20138;-63
2020/12/22 11:11:42;;;;;;;0.68;0.68;;;;;;;12.83;64.71;100877.25;7949954;28;20031;-63
2020/12/22 11:15:33;;;;;;;0.60;0.60;;;;;;;12.83;64.68;100871.13;7933746;28;20581;-63
2020/12/22 11:19:24;;;;;;;1.08;0.85;;;;;;;12.82;64.63;100882.63;7944755;28;20049;-63
2020/12/22 11:23:14;;;;;;;1.25;1.00;;;;;;;12.80;65.11;100887.19;7931012;28;20051;-63
2020/12/22 11:27:05;;;;;;;2.83;0.60;;;;;;;12.79;64.61;100886.34;7930210;28;20026;-63
2020/12/22 11:30:55;;;;;;;0.60;0.60;;;;;;;12.74;64.32;100883.19;7931372;28;20048;-63
2020/12/22 11:34:46;;;;;;;0.57;0.57;;;;;;;12.75;64.32;100890.16;7931199;28;20046;-63
2020/12/22 11:38:38;;;;;;;0.50;0.50;;;;;;;12.73;64.18;100889.41;7931230;28;20066;-63
2020/12/22 11:42:28;;;;;;;0.60;0.60;;;;;;;12.74;64.17;100885.84;7931330;28;20515;-63
2020/12/22 11:46:20;;;;;;;1.60;0.55;;;;;;;12.67;64.06;100891.69;7928631;28;20053;-63
2020/12/22 11:50:10;;;;;;;0.93;0.68;;;;;;;12.73;64.15;100907.03;7930583;28;20038;-63
2020/12/22 11:54:01;;;;;;;0.47;0.47;;;;;;;12.73;63.80;100897.31;7932818;28;20568;-63
2020/12/22 11:57:52;;;;;;;1.67;0.60;;;;;;;12.73;63.91;100904.38;7930921;28;20126;-63
2020/12/22 12:01:42;;;;;;;0.70;0.68;;;;;;;12.73;63.72;100907.88;7930236;28;20579;-64
2020/12/22 12:05:33;;;;;;;0.50;0.50;;;;;;;12.73;63.69;100910.50;7931957;28;20053;-62
2020/12/22 12:09:24;;;;;;;0.55;0.50;;;;;;;12.69;63.58;100905.56;7931602;28;20044;-64
2020/12/22 12:13:15;;;;;;;0.85;0.60;;;;;;;12.76;63.82;100907.66;7932582;28;20411;-63
2020/12/22 12:17:05;;;;;;;0.47;0.47;;;;;;;12.78;63.69;100910.16;7926030;28;20046;-63
2020/12/22 12:20:56;;;;;;;0.50;0.50;;;;;;;12.76;63.56;100906.81;7928223;28;20044;-62
2020/12/22 12:24:46;;;;;;;0.80;0.60;;;;;;;12.77;63.39;100922.50;7929916;28;20041;-63
2020/12/22 12:28:39;;;;;;;1.52;0.63;;;;;;;12.78;63.63;100925.97;7947145;28;20048;-63
2020/12/22 12:32:29;;;;;;;0.80;0.70;;;;;;;12.77;63.45;100930.41;7931917;28;20038;-63
2020/12/22 12:36:20;;;;;;;3.42;0.68;;;;;;;12.77;63.52;100925.13;7929719;28;20053;-62
2020/12/22 12:40:11;;;;;;;0.73;0.63;;;;;;;12.80;63.55;100938.13;7930336;28;20033;-63
2020/12/22 12:44:02;;;;;;;0.82;0.55;;;;;;;12.80;63.24;100935.47;7932615;28;20037;-63
2020/12/22 12:47:53;;;;;;;0.65;0.63;;;;;;;12.80;63.34;100934.63;7928016;28;20510;-63
2020/12/22 12:51:44;;;;;;;2.22;0.57;;;;;;;12.80;63.33;100939.91;7931231;28;20043;-63
2020/12/22 12:55:35;;;;;;;2.83;0.60;;;;;;;12.80;63.20;100951.28;7931877;28;20192;-62
2020/12/22 12:59:25;;;;;;;0.70;0.70;;;;;;;12.82;63.29;100943.25;7931220;28;20042;-62
2020/12/22 13:03:16;;;;;;;0.60;0.60;;;;;;;12.83;63.45;100943.16;7929309;28;20128;-63
2020/12/22 13:07:06;;;;;;;0.75;0.60;;;;;;;12.86;63.23;100923.63;7928646;28;20052;-63
2020/12/22 13:10:57;;;;;;;0.70;0.63;;;;;;;12.89;63.42;100933.91;7928888;28;20038;-64
2020/12/22 13:14:48;;;;;;;1.25;0.70;;;;;;;12.90;63.08;100933.81;7932842;28;20030;-64
2020/12/22 13:18:39;;;;;;;1.55;1.02;;;;;;;12.90;63.17;100936.44;7945475;28;20510;-63
2020/12/22 13:22:30;;;;;;;2.70;1.08;;;;;;;12.92;63.02;100934.56;7932327;28;20038;-63
2020/12/22 13:26:20;;;;;;;0.52;0.50;;;;;;;12.92;63.03;100925.81;7940606;28;20029;-63
2020/12/22 13:30:11;;;;;;;0.60;0.60;;;;;;;12.92;62.96;100926.66;7933979;28;20091;-62
2020/12/22 13:34:03;;;;;;;0.50;0.50;;;;;;;12.94;62.82;100937.91;7934676;28;20034;-63
2020/12/22 13:37:53;;;;;;;0.85;0.50;;;;;;;12.93;62.84;100944.13;7935900;28;20038;-63
2020/12/22 13:41:45;;;;;;;1.52;0.75;;;;;;;12.91;62.92;100940.78;7935682;28;20026;-63
2020/12/22 13:45:36;;;;;;;0.50;0.50;;;;;;;12.93;62.56;100959.94;7934211;28;20058;-63
2020/12/22 13:49:27;;;;;;;2.45;0.57;;;;;;;12.91;62.93;100956.59;7930893;28;20030;-64
2020/12/22 13:53:17;;;;;;;3.05;0.75;;;;;;;12.96;62.66;100966.81;7936055;28;20050;-63
2020/12/22 13:57:08;;;;;;;1.52;0.85;;;;;;;12.93;62.52;100962.59;7936080;28;20042;-63
2020/12/22 14:00:59;;;;;;;0.47;0.47;;;;;;;12.91;62.60;100956.59;7934846;28;20407;-63
2020/12/22 14:04:49;;;;;;;1.42;0.90;;;;;;;12.86;62.18;100953.47;7936299;28;20092;-63
2020/12/22 14:08:40;;;;;;;2.47;0.70;;;;;;;12.81;62.40;100954.75;7932934;28;20521;-63
2020/12/22 14:12:30;;;;;;;1.83;0.70;;;;;;;12.75;62.41;100971.88;7934681;28;20040;-63
2020/12/22 14:16:21;;;;;;;0.85;0.50;;;;;;;12.70;62.29;100978.44;7932436;28;20852;-63
2020/12/22 14:20:12;;;;;;;0.65;0.60;;;;;;;12.68;62.48;100981.16;7933851;28;20037;-63
2020/12/22 14:24:02;;;;;;;2.35;0.55;;;;;;;12.65;62.37;100988.47;7934016;28;20038;-63
2020/12/22 14:27:53;;;;;;;0.63;0.60;;;;;;;12.62;62.43;100991.31;7934342;28;20026;-63
2020/12/22 14:31:45;;;;;;;4.05;1.17;;;;;;;12.61;62.48;100993.13;7932477;28;20942;-63
2020/12/22 14:35:37;;;;;;;2.78;1.10;;;;;;;12.59;62.41;100989.75;7935277;28;20117;-63
2020/12/22 14:39:28;;;;;;;3.13;0.85;;;;;;;12.56;62.66;100989.13;7934610;28;20034;-63
2020/12/22 14:43:19;;;;;;;2.63;1.48;;;;;;;12.51;62.07;100998.19;7933573;28;20044;-63
2020/12/22 14:47:10;;;;;;;1.40;0.90;;;;;;;12.49;62.45;100996.59;7931434;28;20077;-63
2020/12/22 14:51:03;;;;;;;0.85;0.70;;;;;;;12.46;62.24;100999.47;7948822;28;20033;-63
2020/12/22 14:54:53;;;;;;;4.43;1.20;;;;;;;12.43;62.30;100983.88;7933329;28;20037;-63
2020/12/22 14:58:44;;;;;;;1.50;1.00;;;;;;;12.41;62.26;100983.13;7925965;28;20037;-63
2020/12/22 15:02:35;;;;;;;2.63;1.23;;;;;;;12.42;62.37;100987.47;7894879;28;20053;-63
2020/12/22 15:06:26;;;;;;;2.30;1.00;;;;;;;12.40;62.39;101006.00;7923836;28;20042;-63
2020/12/22 15:10:17;;;;;;;1.08;0.90;;;;;;;12.38;62.25;101014.97;7927368;28;20029;-64
2020/12/22 15:14:08;;;;;;;1.98;1.23;;;;;;;12.36;62.21;101019.50;7928965;28;20048;-63
2020/12/22 15:17:58;;;;;;;2.50;0.98;;;;;;;12.33;62.20;101009.19;7927769;28;20045;-63
2020/12/22 15:21:53;;;;;;;1.88;0.90;;;;;;;12.33;62.02;101019.72;7925259;28;20670;-63
2020/12/22 15:25:44;;;;;;;1.42;0.77;;;;;;;12.33;62.17;101009.19;7804757;28;23169;-63
2020/12/22 15:29:34;;;;;;;1.95;0.60;;;;;;;12.33;62.14;101004.78;7889670;28;20046;-63
2020/12/22 15:33:25;;;;;;;1.95;0.90;;;;;;;12.34;62.02;101005.63;7926499;28;20076;-62
2020/12/22 15:37:16;;;;;;;1.35;0.88;;;;;;;12.35;62.13;101012.56;7928847;28;20038;-63
2020/12/22 15:41:07;;;;;;;0.55;0.50;;;;;;;12.32;61.66;101010.97;7932236;28;20065;-63
2020/12/22 15:44:58;;;;;;;1.13;0.70;;;;;;;12.32;61.90;101007.50;7920229;28;20164;-63
2020/12/22 15:48:49;;;;;;;0.65;0.63;;;;;;;12.32;61.87;101018.03;7930224;28;20422;-62
2020/12/22 15:52:39;;;;;;;2.50;1.25;;;;;;;12.32;61.59;101020.66;7930752;28;20077;-63
2020/12/22 15:56:39;;;;;;;2.47;1.13;;;;;;;12.31;61.68;101032.19;7934057;28;20034;-63
2020/12/22 16:00:29;;;;;;;0.85;0.82;;;;;;;12.31;61.97;101034.81;7932100;28;20034;-63
2020/12/22 16:04:24;;;;;;;4.38;0.70;;;;;;;12.29;61.75;101031.44;7934228;28;20038;-63
2020/12/22 16:08:15;;;;;;;2.15;1.30;;;;;;;12.26;61.72;101029.88;7948638;28;20034;-64
2020/12/22 16:12:06;;;;;;;1.48;0.95;;;;;;;12.20;62.09;101034.72;7931614;28;20056;-63
2020/12/22 16:15:56;;;;;;;2.50;1.02;;;;;;;12.18;61.95;101026.09;7931572;28;20030;-63
2020/12/22 16:19:47;;;;;;;0.93;0.70;;;;;;;12.14;62.13;101016.72;7944961;28;20706;-63
2020/12/22 16:23:42;;;;;;;5.25;1.65;;;;;;;12.15;62.28;101026.28;7932385;28;20525;-63
2020/12/22 16:27:32;;;;;;;6.25;2.00;;;;;;;12.16;62.00;101026.19;7933652;28;20100;-64
2020/12/22 16:31:23;;;;;;;3.00;1.20;;;;;;;12.16;61.91;101017.44;7932476;28;20037;-63
2020/12/22 16:35:14;;;;;;;1.77;0.95;;;;;;;12.14;61.99;101020.19;7948306;28;20033;-63
2020/12/22 16:39:06;;;;;;;0.75;0.70;;;;;;;12.10;62.09;101012.63;7929699;28;20036;-63
2020/12/22 16:42:56;;;;;;;1.10;0.60;;;;;;;12.10;62.22;101020.53;7923959;28;20078;-63
2020/12/22 16:46:47;;;;;;;1.40;0.70;;;;;;;12.10;62.04;101012.63;7931543;28;20077;-63
2020/12/22 16:50:38;;;;;;;0.93;0.77;;;;;;;12.08;61.96;101010.94;7926206;28;20702;-63
2020/12/22 16:54:29;;;;;;;1.00;0.63;;;;;;;12.11;61.77;101009.84;7930531;28;20125;-63
2020/12/22 16:58:19;;;;;;;1.33;1.08;;;;;;;12.11;61.87;101016.91;7930872;28;20107;-64
2020/12/22 17:02:10;;;;;;;1.67;0.95;;;;;;;12.11;61.69;101011.66;7932687;28;20038;-63
2020/12/22 17:06:00;;;;;;;0.80;0.80;;;;;;;12.10;61.70;101015.25;7927511;28;20041;-63
2020/12/22 17:09:52;;;;;;;1.88;0.98;;;;;;;12.11;61.69;101011.66;7900838;28;20471;-63
2020/12/22 17:13:43;;;;;;;1.85;0.73;;;;;;;12.07;61.54;101013.66;7897323;28;20064;-63
2020/12/22 17:17:36;;;;;;;2.22;1.30;;;;;;;12.05;61.33;101011.16;7898966;28;20041;-63
2020/12/22 17:21:34;;;;;;;1.52;1.05;;;;;;;12.04;61.63;101006.81;7900768;28;20053;-63
2020/12/22 17:25:24;;;;;;;1.85;0.80;;;;;;;11.99;61.42;101006.31;7898551;28;20105;-63
2020/12/22 17:29:15;;;;;;;1.38;1.05;;;;;;;11.97;61.44;101008.22;7874545;28;20395;-63
2020/12/22 17:33:06;;;;;;;1.83;1.13;;;;;;;11.96;61.59;101003.88;7900076;28;20053;-62
2020/12/22 17:36:56;;;;;;;2.25;1.20;;;;;;;11.94;61.65;101011.03;7896111;28;20030;-63
2020/12/22 17:40:47;;;;;;;1.10;1.00;;;;;;;11.93;61.67;101001.47;7891998;28;20525;-63
2020/12/22 17:44:38;;;;;;;2.15;1.08;;;;;;;11.91;61.55;100997.25;7898595;28;20045;-63
2020/12/22 17:48:28;;;;;;;4.28;1.15;;;;;;;11.90;61.63;100998.19;7898623;28;20093;-63
2020/12/22 17:52:19;;;;;;;1.35;1.00;;;;;;;11.89;61.57;101007.06;7888437;28;20034;-63
2020/12/22 17:56:16;;;;;;;2.88;1.38;;;;;;;11.87;61.53;101019.47;7900867;28;20034;-68
2020/12/22 18:00:08;;;;;;;0.93;0.90;;;;;;;11.84;61.59;101020.53;7902437;28;20038;-64